Time;durP1;ratioP1;P1;durP2;ratioP2;P2;SDS_P1;SDS_P2;PMS_P1;PMS_P2;Temp;Humidity;BMP_temperature;BMP_pressure;BME280_temperature;BME280_humidity;BME280_pressure;Samples;Min_cycle;Max_cycle;Signal;HPM_P1;HPM_P2
2021/08/10 00:02:07;;;;;;;6.82;5.75;;;;;;;15.01;100.00;101480.19;5152672;29;20493;-66
2021/08/10 00:04:38;;;;;;;8.83;6.40;;;;;;;15.00;100.00;101467.13;5152254;28;20555;-66
2021/08/10 00:07:10;;;;;;;9.60;5.65;;;;;;;14.99;100.00;101476.00;5153786;28;20286;-66
2021/08/10 00:09:41;;;;;;;6.85;5.70;;;;;;;14.99;100.00;101478.66;5152436;29;20689;-66
2021/08/10 00:12:13;;;;;;;8.05;6.03;;;;;;;14.97;100.00;101476.16;5154841;28;20051;-66
2021/08/10 00:14:44;;;;;;;10.10;6.50;;;;;;;14.97;100.00;101467.44;5154281;29;20186;-66
2021/08/10 00:17:15;;;;;;;8.00;6.55;;;;;;;14.95;100.00;101469.38;5153891;29;20062;-66
2021/08/10 00:19:47;;;;;;;10.23;6.22;;;;;;;14.92;100.00;101470.47;5152644;28;20034;-66
2021/08/10 00:22:18;;;;;;;7.78;6.47;;;;;;;14.90;100.00;101468.97;5153682;28;20159;-66
2021/08/10 00:24:49;;;;;;;8.13;6.05;;;;;;;14.92;100.00;101469.66;5153995;28;20390;-66
2021/08/10 00:27:20;;;;;;;9.05;5.93;;;;;;;14.90;100.00;101466.34;5153532;28;20047;-66
2021/08/10 00:29:52;;;;;;;7.38;5.70;;;;;;;14.88;100.00;101468.28;5152501;28;20085;-66
2021/08/10 00:32:23;;;;;;;7.38;5.65;;;;;;;14.90;100.00;101467.16;5153840;28;20041;-66
2021/08/10 00:34:54;;;;;;;8.13;5.75;;;;;;;14.91;100.00;101473.25;5153814;28;20031;-66
2021/08/10 00:37:26;;;;;;;10.75;6.22;;;;;;;14.92;100.00;101470.47;5152743;28;20031;-66
2021/08/10 00:39:57;;;;;;;8.23;5.50;;;;;;;14.93;100.00;101469.53;5153308;28;20047;-66
2021/08/10 00:42:28;;;;;;;11.20;6.10;;;;;;;14.97;100.00;101468.25;5153897;28;20034;-66
2021/08/10 00:45:00;;;;;;;8.05;6.32;;;;;;;15.01;100.00;101469.63;5151984;29;20033;-66
2021/08/10 00:47:31;;;;;;;7.95;5.63;;;;;;;15.04;100.00;101465.88;5154248;28;20023;-66
2021/08/10 00:50:03;;;;;;;8.13;5.80;;;;;;;15.03;100.00;101472.13;5153613;28;20382;-67
2021/08/10 00:52:35;;;;;;;9.65;5.65;;;;;;;14.98;100.00;101467.28;5152023;28;20493;-66
2021/08/10 00:55:07;;;;;;;8.82;6.00;;;;;;;15.05;100.00;101470.19;5152581;28;20038;-66
2021/08/10 00:57:39;;;;;;;9.02;5.97;;;;;;;15.05;100.00;101470.19;5152712;28;20098;-67
2021/08/10 01:00:10;;;;;;;7.47;5.60;;;;;;;15.05;100.00;101452.53;5153806;29;20122;-66
2021/08/10 01:02:43;;;;;;;10.32;5.43;;;;;;;15.04;100.00;101455.31;5151352;29;20114;-66
2021/08/10 01:05:14;;;;;;;7.88;5.65;;;;;;;15.07;100.00;101452.38;5152481;28;20219;-66
2021/08/10 01:08:04;;;;;;;7.78;5.10;;;;;;;15.11;100.00;101452.91;5153080;28;20029;-66
2021/08/10 01:11:01;;;;;;;7.53;5.30;;;;;;;15.08;100.00;101459.34;5153080;29;20437;-66
2021/08/10 01:13:49;;;;;;;7.90;5.22;;;;;;;15.09;100.00;101456.53;5151356;28;20030;-67
2021/08/10 01:16:32;;;;;;;7.03;5.10;;;;;;;15.13;100.00;101461.53;5152793;29;20035;-67
2021/08/10 01:19:25;;;;;;;10.13;5.15;;;;;;;15.16;100.00;101466.53;5152963;29;20089;-66
2021/08/10 01:22:00;;;;;;;8.35;5.80;;;;;;;15.13;100.00;101472.09;5150847;29;20043;-66
2021/08/10 01:24:40;;;;;;;8.35;5.65;;;;;;;15.14;100.00;101468.47;5152496;29;20023;-66
2021/08/10 01:27:29;;;;;;;7.13;4.65;;;;;;;15.11;100.00;101468.75;5153458;29;20463;-66
2021/08/10 01:30:12;;;;;;;8.05;5.13;;;;;;;15.15;100.00;101473.59;5148077;29;20082;-67
2021/08/10 01:32:47;;;;;;;8.20;5.07;;;;;;;15.12;100.00;101468.63;5150414;28;20038;-66
2021/08/10 01:35:20;;;;;;;6.60;4.80;;;;;;;15.10;100.00;101475.84;5151440;29;20038;-66
2021/08/10 01:37:57;;;;;;;7.00;4.97;;;;;;;15.14;100.00;101476.38;5152395;28;20038;-67
2021/08/10 01:40:30;;;;;;;6.65;5.03;;;;;;;15.11;100.00;101469.59;5150077;28;20401;-67
2021/08/10 01:43:03;;;;;;;9.25;5.90;;;;;;;15.08;100.00;101465.44;5151876;29;20035;-67
2021/08/10 01:45:37;;;;;;;6.78;5.05;;;;;;;15.09;100.00;101469.75;5151784;29;20027;-67
2021/08/10 01:48:12;;;;;;;9.00;5.65;;;;;;;15.09;100.00;101468.91;5151853;28;20469;-67
2021/08/10 01:50:45;;;;;;;9.07;5.07;;;;;;;15.08;100.00;101459.34;5150799;28;20019;-66
2021/08/10 01:53:18;;;;;;;;;;;;;;;15.33;100.00;101453.38;5152962;29;20024;-66
2021/08/10 01:55:50;;;;;;;8.30;5.05;;;;;;;15.13;100.00;101433.34;5151207;29;19922;-66
2021/08/10 01:58:21;;;;;;;8.77;5.00;;;;;;;15.13;100.00;101457.09;5153075;28;20031;-67
2021/08/10 02:00:53;;;;;;;7.63;5.18;;;;;;;15.13;100.00;101466.81;5149749;29;20461;-66
2021/08/10 02:03:26;;;;;;;7.15;5.38;;;;;;;15.12;100.00;101454.59;5149361;28;20335;-66
2021/08/10 02:05:57;;;;;;;5.88;4.80;;;;;;;15.10;100.00;101460.00;5150405;28;20070;-66
2021/08/10 02:08:32;;;;;;;6.65;4.88;;;;;;;15.09;100.00;101467.09;5150738;28;20019;-67
2021/08/10 02:11:04;;;;;;;8.88;5.07;;;;;;;15.08;100.00;101468.09;5151951;29;20023;-66
2021/08/10 02:13:35;;;;;;;9.33;5.20;;;;;;;15.08;100.00;101462.81;5151814;29;20552;-67
2021/08/10 02:16:08;;;;;;;7.22;4.88;;;;;;;15.06;100.00;101467.38;5150837;28;20365;-67
2021/08/10 02:18:40;;;;;;;9.38;5.50;;;;;;;15.04;100.00;101469.34;5151871;29;20039;-67
2021/08/10 02:21:20;;;;;;;11.60;6.22;;;;;;;15.05;100.00;101476.28;5151770;28;20050;-66
2021/08/10 02:23:59;;;;;;;9.18;5.20;;;;;;;15.03;100.00;101472.13;5150935;29;20493;-67
2021/08/10 02:26:39;;;;;;;8.18;5.80;;;;;;;15.00;100.00;101472.41;5150773;29;20023;-67
2021/08/10 02:29:12;;;;;;;8.48;4.85;;;;;;;14.95;100.00;101474.63;5151753;29;20031;-67
2021/08/10 02:31:45;;;;;;;;;;;;;;;15.19;100.00;101482.91;5150534;28;20089;-66
2021/08/10 02:34:18;;;;;;;7.43;4.77;;;;;;;14.93;100.00;101480.06;5151065;28;20031;-66
2021/08/10 02:36:56;;;;;;;8.35;5.10;;;;;;;14.92;100.00;101483.66;5150682;29;20488;-67
2021/08/10 02:39:28;;;;;;;6.65;4.15;;;;;;;14.88;100.00;101487.56;5151773;29;20031;-66
2021/08/10 02:42:01;;;;;;;7.22;4.55;;;;;;;14.89;100.00;101475.19;5150606;28;20125;-66
2021/08/10 02:44:36;;;;;;;7.78;4.35;;;;;;;14.87;100.00;101472.72;5151709;28;20146;-66
2021/08/10 02:47:07;;;;;;;8.80;4.15;;;;;;;14.84;100.00;101468.53;5150769;29;20034;-66
2021/08/10 02:49:40;;;;;;;7.65;4.63;;;;;;;14.82;100.00;101470.50;5150595;28;20540;-66
2021/08/10 02:52:12;;;;;;;5.50;3.60;;;;;;;14.79;100.00;101465.50;5154810;28;20678;-66
2021/08/10 02:54:46;;;;;;;8.30;3.80;;;;;;;14.80;100.00;101467.16;5155658;29;20027;-66
2021/08/10 02:57:26;;;;;;;6.68;3.70;;;;;;;14.81;100.00;101465.34;5153897;28;20039;-66
2021/08/10 03:00:01;;;;;;;6.97;3.83;;;;;;;14.75;100.00;101476.50;5154878;29;20030;-66
2021/08/10 03:02:36;;;;;;;4.00;3.17;;;;;;;14.77;100.00;101477.16;5155179;29;20027;-66
2021/08/10 03:05:17;;;;;;;6.38;3.63;;;;;;;14.73;100.00;101481.91;5154893;29;20192;-66
2021/08/10 03:08:00;;;;;;;5.60;3.35;;;;;;;14.70;100.00;101479.56;5154408;28;20110;-66
2021/08/10 03:10:33;;;;;;;7.88;3.92;;;;;;;14.63;100.00;101475.00;5154977;29;20027;-66
2021/08/10 03:13:07;;;;;;;9.25;3.63;;;;;;;14.60;100.00;101476.94;5154341;29;20027;-66
2021/08/10 03:15:39;;;;;;;7.72;3.35;;;;;;;14.55;100.00;101478.34;5154390;29;20462;-66
2021/08/10 03:18:14;;;;;;;7.70;3.75;;;;;;;14.54;100.00;101485.38;5155438;28;20504;-66
2021/08/10 03:20:45;;;;;;;6.20;3.42;;;;;;;14.52;100.00;101478.63;5153531;29;20114;-66
2021/08/10 03:23:18;;;;;;;7.55;3.60;;;;;;;14.51;100.00;101480.44;5155165;28;20031;-66
2021/08/10 03:25:49;;;;;;;;;;;;;;;14.75;100.00;101487.88;5155121;28;20191;-66
2021/08/10 03:28:25;;;;;;;5.15;3.35;;;;;;;14.50;100.00;101481.38;5154821;28;19914;-66
2021/08/10 03:30:58;;;;;;;5.78;3.03;;;;;;;14.45;100.00;101485.38;5154296;28;20055;-66
2021/08/10 03:33:29;;;;;;;8.25;3.50;;;;;;;14.45;100.00;101488.84;5154634;28;20046;-66
2021/08/10 03:36:02;;;;;;;5.43;3.28;;;;;;;14.42;100.00;101480.38;5154529;28;20267;-66
2021/08/10 03:38:35;;;;;;;5.45;3.30;;;;;;;14.39;100.00;101485.94;5153568;29;20046;-66
2021/08/10 03:41:07;;;;;;;4.93;3.38;;;;;;;14.35;100.00;101488.00;5154498;28;20027;-66
2021/08/10 03:43:39;;;;;;;5.40;3.70;;;;;;;14.30;100.00;101475.25;5154470;29;20034;-66
2021/08/10 03:46:11;;;;;;;5.95;3.90;;;;;;;14.28;100.00;101474.56;5154213;28;20031;-66
2021/08/10 03:48:44;;;;;;;5.80;3.33;;;;;;;14.24;100.00;101472.34;5154850;28;20323;-66
2021/08/10 03:51:16;;;;;;;;;;;;;;;14.48;100.00;101471.94;5154219;29;20023;-66
2021/08/10 03:53:47;;;;;;;6.22;3.17;;;;;;;14.25;100.00;101466.13;5152657;29;19919;-66
2021/08/10 03:56:22;;;;;;;5.60;3.80;;;;;;;14.19;100.00;101464.84;5154522;29;20019;-66
2021/08/10 03:58:55;;;;;;;6.25;3.30;;;;;;;14.16;100.00;101459.03;5153914;28;20046;-66
2021/08/10 04:01:30;;;;;;;6.63;4.20;;;;;;;14.14;100.00;101463.63;5150751;29;20027;-66
2021/08/10 04:04:03;;;;;;;5.22;3.70;;;;;;;14.12;100.00;101466.38;5150433;28;20027;-66
2021/08/10 04:06:37;;;;;;;4.72;3.92;;;;;;;14.09;100.00;101464.84;5152762;28;20433;-66
2021/08/10 04:09:09;;;;;;;7.13;3.95;;;;;;;14.06;100.00;101466.94;5154612;28;20575;-66
2021/08/10 04:11:40;;;;;;;8.63;3.92;;;;;;;14.05;100.00;101467.88;5152723;28;20031;-66
2021/08/10 04:14:13;;;;;;;5.13;3.33;;;;;;;14.01;100.00;101471.75;5153279;28;20034;-66
2021/08/10 04:16:52;;;;;;;7.72;3.60;;;;;;;14.04;100.00;101479.41;5153789;28;20035;-66
2021/08/10 04:19:29;;;;;;;6.07;3.58;;;;;;;14.00;100.00;101480.66;5153443;28;20047;-66
2021/08/10 04:22:02;;;;;;;6.10;3.42;;;;;;;13.96;100.00;101474.00;5153552;28;20038;-66
2021/08/10 04:24:33;;;;;;;8.27;3.58;;;;;;;13.94;100.00;101474.13;5153295;29;20084;-66
2021/08/10 04:27:05;;;;;;;8.40;3.97;;;;;;;13.93;100.00;101472.44;5152257;28;20027;-66
2021/08/10 04:29:36;;;;;;;6.25;4.05;;;;;;;13.88;100.00;101472.88;5152780;29;20027;-66
2021/08/10 04:32:08;;;;;;;8.63;3.80;;;;;;;13.93;100.00;101482.16;5152652;28;20027;-66
2021/08/10 04:34:40;;;;;;;6.70;3.75;;;;;;;13.98;100.00;101485.19;5153178;28;20019;-66
2021/08/10 04:37:11;;;;;;;6.05;3.67;;;;;;;14.01;100.00;101480.50;5152751;28;20420;-66
2021/08/10 04:39:42;;;;;;;8.15;4.53;;;;;;;14.05;100.00;101481.06;5153719;28;20058;-66
2021/08/10 04:42:14;;;;;;;5.65;3.72;;;;;;;14.07;100.00;101476.50;5153229;28;20035;-66
2021/08/10 04:44:45;;;;;;;8.73;4.18;;;;;;;14.11;100.00;101475.25;5149972;28;20196;-66
2021/08/10 04:47:16;;;;;;;5.65;3.80;;;;;;;14.12;100.00;101475.09;5152904;29;20429;-66
2021/08/10 04:49:47;;;;;;;6.72;4.38;;;;;;;14.18;100.00;101468.47;5153262;28;20039;-66
2021/08/10 04:52:20;;;;;;;6.32;3.88;;;;;;;14.16;100.00;101464.28;5152344;29;20578;-66
2021/08/10 04:54:52;;;;;;;;;;;;;;;14.45;100.00;101469.56;5153562;29;20019;-66
2021/08/10 04:57:24;;;;;;;6.23;3.80;;;;;;;14.26;100.00;101471.22;5153027;28;19921;-66
2021/08/10 04:59:56;;;;;;;5.15;3.78;;;;;;;14.25;100.00;101484.56;5152242;28;20283;-66
2021/08/10 05:02:27;;;;;;;5.57;4.07;;;;;;;14.23;100.00;101486.50;5152603;28;20050;-66
2021/08/10 05:04:58;;;;;;;6.18;4.30;;;;;;;14.25;100.00;101495.09;5152215;28;20031;-66
2021/08/10 05:07:29;;;;;;;7.68;3.97;;;;;;;14.23;100.00;101489.94;5153148;29;20027;-66
2021/08/10 05:10:02;;;;;;;7.97;4.22;;;;;;;14.25;100.00;101497.75;5150811;28;20027;-66
2021/08/10 05:12:34;;;;;;;5.60;4.40;;;;;;;14.24;100.00;101502.16;5149683;29;20063;-67
2021/08/10 05:15:06;;;;;;;7.45;4.55;;;;;;;14.26;100.00;101505.50;5152366;28;20086;-67
2021/08/10 05:17:38;;;;;;;7.13;4.55;;;;;;;14.26;100.00;101502.84;5151106;29;20497;-67
2021/08/10 05:20:10;;;;;;;6.43;4.70;;;;;;;14.25;100.00;101514.38;5150991;28;20029;-67
2021/08/10 05:22:41;;;;;;;6.28;4.80;;;;;;;14.30;100.00;101520.06;5151132;28;20518;-66
2021/08/10 05:25:12;;;;;;;7.00;4.65;;;;;;;14.31;100.00;101508.53;5152020;28;20159;-66
2021/08/10 05:27:44;;;;;;;8.25;4.97;;;;;;;14.31;100.00;101516.44;5151803;28;20558;-67
2021/08/10 05:30:15;;;;;;;6.35;4.93;;;;;;;14.35;100.00;101520.47;5149376;28;20082;-66
2021/08/10 05:32:46;;;;;;;7.57;4.50;;;;;;;14.40;100.00;101525.34;5151209;28;20032;-67
2021/08/10 05:35:18;;;;;;;8.15;4.60;;;;;;;14.42;100.00;101522.56;5143019;28;20039;-67
2021/08/10 05:37:49;;;;;;;7.35;4.85;;;;;;;14.47;100.00;101528.25;5148353;28;20031;-67
2021/08/10 05:40:21;;;;;;;6.88;4.40;;;;;;;14.54;100.00;101514.41;5151535;28;20086;-67
2021/08/10 05:42:52;;;;;;;7.60;4.82;;;;;;;14.60;100.00;101520.94;5151922;28;20030;-67
2021/08/10 05:45:23;;;;;;;7.80;4.47;;;;;;;14.64;100.00;101522.31;5150894;28;20031;-67
2021/08/10 05:47:54;;;;;;;8.20;4.75;;;;;;;14.67;100.00;101529.94;5151140;28;20102;-66
2021/08/10 05:50:26;;;;;;;7.43;4.10;;;;;;;14.73;100.00;101520.63;5148001;28;20152;-67
2021/08/10 05:52:57;;;;;;;6.45;4.20;;;;;;;14.83;100.00;101522.28;5149765;28;20023;-66
2021/08/10 05:55:28;;;;;;;5.80;4.30;;;;;;;14.89;100.00;101528.81;5151628;28;20066;-67
2021/08/10 05:58:00;;;;;;;6.40;4.82;;;;;;;14.94;100.00;101528.38;5151158;28;20035;-67
2021/08/10 06:00:31;;;;;;;6.05;4.45;;;;;;;15.02;100.00;101539.06;5149641;28;20030;-67
2021/08/10 06:03:03;;;;;;;8.55;4.80;;;;;;;15.05;100.00;101523.78;5150599;28;20082;-67
2021/08/10 06:05:34;;;;;;;7.95;4.78;;;;;;;15.06;100.00;101530.72;5151215;28;20089;-67
2021/08/10 06:08:06;;;;;;;8.18;4.45;;;;;;;15.08;100.00;101526.16;5147515;28;20027;-67
2021/08/10 06:10:38;;;;;;;5.68;4.40;;;;;;;15.10;100.00;101531.25;5132753;28;20038;-67
2021/08/10 06:13:09;;;;;;;6.10;4.70;;;;;;;15.11;100.00;101530.28;5142652;28;20111;-67
2021/08/10 06:15:40;;;;;;;6.68;4.60;;;;;;;15.13;100.00;101528.34;5148926;28;20047;-67
2021/08/10 06:18:12;;;;;;;6.90;4.43;;;;;;;15.14;100.00;101519.44;5140061;28;20900;-67
2021/08/10 06:20:43;;;;;;;7.05;5.45;;;;;;;15.17;100.00;101515.69;5146266;28;20038;-67
2021/08/10 06:23:15;;;;;;;8.45;4.90;;;;;;;15.22;100.00;101529.28;5149137;28;20445;-67
2021/08/10 06:25:46;;;;;;;8.07;4.65;;;;;;;15.21;100.00;101527.63;5147407;28;20407;-67
2021/08/10 06:28:17;;;;;;;8.02;5.13;;;;;;;15.24;100.00;101532.63;5149883;28;20727;-67
2021/08/10 06:30:49;;;;;;;10.52;5.30;;;;;;;15.26;100.00;101538.56;5150153;28;20055;-67
2021/08/10 06:33:20;;;;;;;8.32;5.10;;;;;;;15.23;100.00;101533.63;5150360;28;20027;-67
2021/08/10 06:35:51;;;;;;;7.80;5.28;;;;;;;15.23;100.00;101533.63;5147139;28;20035;-67
2021/08/10 06:38:23;;;;;;;7.00;5.03;;;;;;;15.17;100.00;101526.25;5149514;28;20114;-67
2021/08/10 06:40:54;;;;;;;7.32;4.90;;;;;;;15.16;100.00;101522.78;5149020;28;20694;-67
2021/08/10 06:43:25;;;;;;;8.38;5.35;;;;;;;15.22;100.00;101521.38;5139483;28;20078;-67
2021/08/10 06:45:57;;;;;;;7.60;5.57;;;;;;;15.20;100.00;101526.81;5150081;28;20027;-67
2021/08/10 06:48:28;;;;;;;8.63;5.53;;;;;;;15.20;100.00;101521.53;5151682;28;20473;-67
2021/08/10 06:51:01;;;;;;;7.35;5.10;;;;;;;15.25;100.00;101519.28;5149651;28;20031;-67
2021/08/10 06:53:32;;;;;;;10.13;5.85;;;;;;;15.32;100.00;101524.81;5149818;28;20115;-67
2021/08/10 06:56:04;;;;;;;8.90;5.57;;;;;;;15.33;100.00;101529.94;5151455;28;20065;-67
2021/08/10 06:58:35;;;;;;;7.18;5.60;;;;;;;15.40;100.00;101532.00;5147535;28;20031;-68
2021/08/10 07:01:06;;;;;;;9.65;5.47;;;;;;;15.42;100.00;101524.75;5149839;28;20031;-68
2021/08/10 07:03:38;;;;;;;8.57;5.47;;;;;;;15.43;100.00;101527.28;5148943;28;20019;-68
2021/08/10 07:06:11;;;;;;;8.82;5.55;;;;;;;15.46;100.00;101526.16;5149830;28;20066;-68
2021/08/10 07:08:42;;;;;;;9.00;5.68;;;;;;;15.49;100.00;101533.78;5149235;28;20039;-68
2021/08/10 07:11:13;;;;;;;9.15;5.35;;;;;;;15.50;100.00;101531.00;5149634;28;20485;-68
2021/08/10 07:13:44;;;;;;;8.00;5.75;;;;;;;15.57;100.00;101534.72;5146551;28;20015;-68
2021/08/10 07:16:16;;;;;;;8.57;5.38;;;;;;;15.62;100.00;101534.28;5147969;28;20027;-68
2021/08/10 07:18:47;;;;;;;9.48;5.32;;;;;;;15.58;100.00;101539.03;5150553;28;20599;-68
2021/08/10 07:21:19;;;;;;;9.07;6.20;;;;;;;15.60;100.00;101544.16;5148792;28;20035;-67
2021/08/10 07:23:50;;;;;;;8.95;6.53;;;;;;;15.63;100.00;101540.41;5148460;28;20581;-67
2021/08/10 07:26:21;;;;;;;8.43;6.18;;;;;;;15.69;100.00;101545.13;5149285;28;20077;-68
2021/08/10 07:28:53;;;;;;;9.25;6.40;;;;;;;15.77;100.00;101545.22;5149604;28;20461;-68
2021/08/10 07:31:24;;;;;;;8.75;5.97;;;;;;;15.76;100.00;101539.13;5149753;29;20052;-67
2021/08/10 07:33:56;;;;;;;8.35;5.50;;;;;;;15.85;100.00;101547.13;5149398;28;20023;-67
2021/08/10 07:36:27;;;;;;;11.52;6.35;;;;;;;15.98;100.00;101550.25;5149445;28;20077;-68
2021/08/10 07:38:59;;;;;;;8.25;5.88;;;;;;;16.05;100.00;101551.31;5152565;28;20583;-68
2021/08/10 07:41:30;;;;;;;9.80;5.53;;;;;;;16.22;100.00;101561.09;5153309;28;20027;-67
2021/08/10 07:44:02;;;;;;;8.68;5.85;;;;;;;16.39;100.00;101553.31;5153840;28;20027;-68
2021/08/10 07:46:33;;;;;;;10.05;5.57;;;;;;;16.45;100.00;101550.09;5152679;28;20406;-67
2021/08/10 07:49:04;;;;;;;8.43;5.60;;;;;;;16.54;100.00;101552.63;5153996;28;20544;-67
2021/08/10 07:51:36;;;;;;;9.32;5.15;;;;;;;16.66;100.00;101563.00;5151704;28;20039;-68
2021/08/10 07:54:07;;;;;;;8.70;5.57;;;;;;;16.80;100.00;101556.38;5152378;28;20030;-68
2021/08/10 07:56:38;;;;;;;8.40;5.50;;;;;;;16.85;100.00;101554.06;5151337;28;20035;-67
2021/08/10 07:59:10;;;;;;;9.55;5.90;;;;;;;16.89;100.00;101556.25;5152799;28;20034;-68
2021/08/10 08:01:41;;;;;;;7.57;5.05;;;;;;;17.06;100.00;101549.28;5153254;28;20172;-68
2021/08/10 08:04:12;;;;;;;8.77;5.60;;;;;;;17.23;100.00;101550.19;5153830;28;20027;-68
2021/08/10 08:06:43;;;;;;;10.65;5.10;;;;;;;17.37;100.00;101552.28;5152645;28;20066;-67
2021/08/10 08:09:15;;;;;;;7.00;4.38;;;;;;;17.34;100.00;101554.41;5153211;28;20038;-68
2021/08/10 08:11:46;;;;;;;12.00;5.05;;;;;;;17.41;100.00;101548.31;5151768;28;20031;-68
2021/08/10 08:14:20;;;;;;;7.45;4.30;;;;;;;17.57;100.00;101546.75;5152874;28;20179;-68
2021/08/10 08:16:51;;;;;;;7.85;4.00;;;;;;;17.62;100.00;101544.47;5152132;28;20074;-68
2021/08/10 08:19:23;;;;;;;8.73;4.25;;;;;;;17.74;100.00;101551.13;5154350;28;20031;-68
2021/08/10 08:21:54;;;;;;;8.23;4.22;;;;;;;17.91;100.00;101544.91;5153376;28;20059;-68
2021/08/10 08:24:25;;;;;;;6.17;3.53;;;;;;;17.98;100.00;101545.09;5151250;28;20067;-68
2021/08/10 08:26:56;;;;;;;6.67;4.13;;;;;;;18.02;100.00;101551.75;5152774;28;20421;-68
2021/08/10 08:29:28;;;;;;;5.93;3.60;;;;;;;18.05;100.00;101543.47;5153347;28;20084;-68
2021/08/10 08:31:59;;;;;;;6.78;3.80;;;;;;;18.11;100.00;101539.34;5153259;28;20025;-68
2021/08/10 08:34:30;;;;;;;5.40;3.17;;;;;;;18.03;100.00;101534.00;5147239;28;20034;-68
2021/08/10 08:37:03;;;;;;;5.40;2.90;;;;;;;18.13;100.00;101532.88;5150454;28;20057;-68
2021/08/10 08:39:35;;;;;;;4.60;2.92;;;;;;;18.21;100.00;101532.88;5151619;28;20489;-68
2021/08/10 08:42:08;;;;;;;6.35;3.00;;;;;;;18.35;100.00;101534.09;5152026;28;20034;-68
2021/08/10 08:44:39;;;;;;;;;;;;;;;18.61;100.00;101528.63;5153372;29;20030;-68
2021/08/10 08:47:10;;;;;;;4.03;2.70;;;;;;;18.36;100.00;101533.06;5150937;28;19923;-68
2021/08/10 08:49:42;;;;;;;7.33;2.90;;;;;;;18.58;100.00;101539.56;5151302;28;20031;-68
2021/08/10 08:52:16;;;;;;;4.97;2.77;;;;;;;18.58;100.00;101536.91;5153341;28;20027;-68
2021/08/10 08:54:47;;;;;;;7.03;2.55;;;;;;;18.52;100.00;101536.75;5149856;28;20141;-68
2021/08/10 08:57:19;;;;;;;4.67;2.43;;;;;;;18.56;100.00;101536.25;5148391;28;20035;-68
2021/08/10 08:59:50;;;;;;;4.57;2.50;;;;;;;18.57;100.00;101534.44;5152474;28;20039;-69
2021/08/10 09:02:21;;;;;;;5.43;3.03;;;;;;;18.63;100.00;101533.75;5152614;28;20390;-68
2021/08/10 09:04:53;;;;;;;6.50;2.90;;;;;;;18.61;100.00;101539.25;5150819;28;20601;-68
2021/08/10 09:07:29;;;;;;;5.53;2.40;;;;;;;18.75;100.00;101526.31;5149927;28;20078;-69
2021/08/10 09:10:09;;;;;;;5.97;2.95;;;;;;;18.80;100.00;101534.63;5150155;28;20410;-68
2021/08/10 09:12:42;;;;;;;7.28;3.40;;;;;;;18.75;100.00;101544.91;5148867;28;20035;-68
2021/08/10 09:15:36;;;;;;;4.90;2.40;;;;;;;18.96;100.00;101543.38;5151289;28;20085;-68
2021/08/10 09:18:13;;;;;;;4.43;2.33;;;;;;;19.05;100.00;101540.72;5150410;28;20027;-68
2021/08/10 09:20:58;;;;;;;3.22;2.30;;;;;;;19.15;100.00;101542.19;5150173;28;20120;-68
2021/08/10 09:23:36;;;;;;;4.68;2.35;;;;;;;19.17;100.00;101542.88;5149906;28;20031;-68
2021/08/10 09:26:09;;;;;;;7.43;2.75;;;;;;;19.25;100.00;101549.16;5149878;28;20056;-68
2021/08/10 09:28:41;;;;;;;;;;;;;;;19.51;100.00;101541.78;5148929;28;20023;-68
2021/08/10 09:31:33;;;;;;;4.57;2.33;;;;;;;19.57;100.00;101549.03;5144358;28;19924;-68
2021/08/10 09:34:28;;;;;;;5.68;2.45;;;;;;;19.61;100.00;101553.00;5146578;28;20122;-68
2021/08/10 09:36:59;;;;;;;4.47;2.28;;;;;;;19.67;100.00;101549.72;5147010;28;20027;-68
2021/08/10 09:39:35;;;;;;;4.47;2.70;;;;;;;19.81;100.00;101552.63;5150170;28;20038;-68
2021/08/10 09:42:11;;;;;;;7.47;3.13;;;;;;;19.76;100.00;101547.84;5146073;28;20027;-69
2021/08/10 09:44:57;;;;;;;5.28;3.05;;;;;;;19.86;100.00;101551.13;5145976;28;20027;-68
2021/08/10 09:47:35;;;;;;;4.35;2.95;;;;;;;19.71;100.00;101547.53;5144696;28;20038;-69
2021/08/10 09:50:17;;;;;;;6.80;2.45;;;;;;;19.75;100.00;101558.66;5147668;28;20046;-69
2021/08/10 09:52:48;;;;;;;7.95;2.92;;;;;;;19.82;100.00;101564.94;5148039;28;20126;-69
2021/08/10 09:55:20;;;;;;;4.93;2.20;;;;;;;19.79;100.00;101557.31;5148796;29;20532;-70
2021/08/10 09:58:04;;;;;;;6.40;2.70;;;;;;;19.98;100.00;101559.53;5150685;28;20055;-70
2021/08/10 10:00:40;;;;;;;5.05;2.53;;;;;;;20.05;100.00;101557.84;5149911;28;20023;-70
2021/08/10 10:03:18;;;;;;;4.60;2.33;;;;;;;20.12;100.00;101550.81;5150474;28;20031;-69
2021/08/10 10:05:50;;;;;;;5.18;2.90;;;;;;;20.11;100.00;101551.81;5150099;29;20027;-70
2021/08/10 10:08:24;;;;;;;4.73;2.90;;;;;;;20.19;100.00;101558.91;5149757;28;20086;-70
2021/08/10 10:10:57;;;;;;;5.78;2.58;;;;;;;20.14;100.00;101554.13;5150651;28;20057;-74
2021/08/10 10:13:29;;;;;;;4.70;2.60;;;;;;;20.12;100.00;101561.47;5149491;28;20019;-70
2021/08/10 10:16:02;;;;;;;5.20;2.90;;;;;;;20.17;100.00;101559.09;5149182;28;20023;-69
2021/08/10 10:18:34;;;;;;;6.38;2.53;;;;;;;20.25;100.00;101568.84;5150211;28;20046;-68
2021/08/10 10:21:05;;;;;;;3.70;2.37;;;;;;;20.20;100.00;101567.75;5148032;28;20058;-68
2021/08/10 10:23:38;;;;;;;3.33;2.17;;;;;;;20.15;100.00;101557.59;5148291;28;20023;-69
2021/08/10 10:26:10;;;;;;;9.20;2.97;;;;;;;20.24;100.00;101561.06;5147447;28;20073;-69
2021/08/10 10:28:43;;;;;;;4.03;2.55;;;;;;;20.15;100.00;101561.13;5149287;28;20760;-68
2021/08/10 10:31:15;;;;;;;4.45;2.35;;;;;;;20.13;100.00;101563.09;5150794;28;20130;-68
2021/08/10 10:33:47;;;;;;;5.87;2.40;;;;;;;20.25;100.00;101560.88;5149636;28;20523;-68
2021/08/10 10:36:18;;;;;;;4.13;2.43;;;;;;;20.26;100.00;101554.53;5150012;28;20271;-68
2021/08/10 10:38:53;;;;;;;4.17;2.17;;;;;;;20.34;100.00;101551.84;5149892;28;20031;-68
2021/08/10 10:41:29;;;;;;;2.97;2.15;;;;;;;20.46;100.00;101554.91;5150452;28;20057;-68
2021/08/10 10:44:01;;;;;;;3.78;1.92;;;;;;;20.44;100.00;101550.75;5149790;28;20086;-68
2021/08/10 10:46:35;;;;;;;4.40;2.33;;;;;;;20.46;100.00;101548.78;5150920;28;20457;-68
2021/08/10 10:49:08;;;;;;;3.85;2.00;;;;;;;20.56;100.00;101544.88;5148415;28;20398;-68
2021/08/10 10:51:39;;;;;;;4.28;2.10;;;;;;;20.48;100.00;101544.91;5148046;28;20034;-69
2021/08/10 10:54:27;;;;;;;4.47;2.43;;;;;;;20.54;100.00;101546.91;5150260;28;20019;-68
2021/08/10 10:57:00;;;;;;;4.53;2.03;;;;;;;20.60;100.00;101551.50;5145406;28;20077;-67
2021/08/10 10:59:36;;;;;;;4.40;2.55;;;;;;;20.73;100.00;101547.41;5147337;28;20508;-68
2021/08/10 11:02:12;;;;;;;4.68;2.72;;;;;;;20.76;100.00;101549.69;5149599;28;20098;-67
2021/08/10 11:05:22;;;;;;;4.05;2.15;;;;;;;20.95;100.00;101543.88;5145367;28;20110;-67
2021/08/10 11:07:56;;;;;;;4.45;2.35;;;;;;;20.72;98.13;101546.59;5086586;29;20068;-67
2021/08/10 11:10:41;;;;;;;4.80;2.30;;;;;;;20.94;99.09;101530.72;5082420;29;20040;-68
2021/08/10 11:13:18;;;;;;;3.97;2.40;;;;;;;20.88;99.54;101545.63;5132170;28;20445;-67
2021/08/10 11:15:49;;;;;;;5.63;2.38;;;;;;;20.92;98.34;101549.56;5148055;28;20043;-67
2021/08/10 11:18:22;;;;;;;5.83;2.87;;;;;;;20.98;96.52;101545.34;5151907;28;20027;-67
2021/08/10 11:21:13;;;;;;;3.72;2.10;;;;;;;21.04;97.22;101547.28;5151461;28;20042;-67
2021/08/10 11:23:45;;;;;;;5.45;2.38;;;;;;;20.98;95.18;101551.50;5153146;28;20027;-68
2021/08/10 11:26:16;;;;;;;3.97;2.40;;;;;;;21.04;94.42;101549.94;5149582;28;20027;-68
2021/08/10 11:28:50;;;;;;;5.77;2.50;;;;;;;21.00;94.57;101552.16;5150760;28;20310;-67
2021/08/10 11:31:32;;;;;;;4.00;2.17;;;;;;;20.93;93.29;101556.53;5152102;28;20095;-67
2021/08/10 11:34:24;;;;;;;3.95;2.60;;;;;;;20.85;93.21;101560.09;5150603;28;20085;-67
2021/08/10 11:37:22;;;;;;;4.90;2.53;;;;;;;20.94;95.57;101558.19;5149708;28;20081;-67
2021/08/10 11:40:09;;;;;;;3.83;2.17;;;;;;;20.80;93.98;101556.34;5151410;28;20469;-67
2021/08/10 11:42:42;;;;;;;3.33;2.05;;;;;;;20.69;93.39;101562.09;5151117;28;20082;-68
2021/08/10 11:45:13;;;;;;;6.53;3.05;;;;;;;20.65;97.00;101559.78;5150855;28;20054;-67
2021/08/10 11:47:56;;;;;;;3.63;2.60;;;;;;;20.66;98.56;101560.63;5152821;28;20031;-68
2021/08/10 11:50:30;;;;;;;5.53;2.63;;;;;;;20.49;100.00;101557.22;5152827;28;20071;-67